createdAt,value
2019-04-11T00:00:53.197Z,100982.30
2019-04-11T00:03:19.831Z,100981.84
2019-04-11T00:05:50.727Z,100979.77
2019-04-11T00:08:17.735Z,100982.35
2019-04-11T00:10:45.044Z,100979.69
2019-04-11T00:13:19.767Z,100980.64
2019-04-11T00:15:40.784Z,100980.13
2019-04-11T00:18:08.290Z,100982.02
2019-04-11T00:20:36.259Z,100978.90
2019-04-11T00:23:03.886Z,100977.69
2019-04-11T00:25:31.601Z,100977.17
2019-04-11T00:27:59.387Z,100969.72
2019-04-11T00:30:26.311Z,100974.97
2019-04-11T00:32:53.861Z,100968.42
2019-04-11T00:35:21.687Z,100973.63
2019-04-11T00:37:49.583Z,100968.92
2019-04-11T00:40:17.486Z,100972.37
2019-04-11T00:42:45.179Z,100966.27
2019-04-11T00:45:13.687Z,100955.52
2019-04-11T00:47:41.550Z,100969.44
2019-04-11T00:50:09.048Z,100980.75
2019-04-11T00:52:37.010Z,100970.25
2019-04-11T00:55:05.067Z,100977.61
2019-04-11T00:57:32.747Z,100974.53
2019-04-11T00:59:59.642Z,100976.39
2019-04-11T01:02:26.513Z,100981.70
2019-04-11T01:04:53.124Z,100979.47
2019-04-11T01:07:19.772Z,100987.77
2019-04-11T01:09:46.986Z,100988.12
2019-04-11T01:12:13.674Z,100986.87
2019-04-11T01:14:40.637Z,100999.08
2019-04-11T01:17:07.825Z,101004.27
2019-04-11T01:19:35.157Z,101003.87
2019-04-11T01:22:02.127Z,101000.34
2019-04-11T01:24:28.825Z,101002.14
2019-04-11T01:26:55.618Z,101004.70
2019-04-11T01:29:23.050Z,100994.32
2019-04-11T01:31:51.817Z,101001.22
2019-04-11T01:34:18.379Z,101000.44
2019-04-11T01:36:45.321Z,101005.62
2019-04-11T01:39:14.498Z,101010.52
2019-04-11T01:41:41.259Z,101000.53
2019-04-11T01:44:08.927Z,101016.13
2019-04-11T01:46:36.142Z,101007.84
2019-04-11T01:49:06.015Z,101008.39
2019-04-11T01:51:33.882Z,100998.39
2019-04-11T01:54:01.560Z,101005.28
2019-04-11T01:56:29.664Z,100994.49
2019-04-11T01:58:57.269Z,100998.77
2019-04-11T02:01:25.958Z,100998.33
2019-04-11T02:03:55.319Z,100998.38
2019-04-11T02:06:23.650Z,101005.28
2019-04-11T02:08:51.370Z,101005.28
2019-04-11T02:11:18.662Z,101004.42
2019-04-11T02:13:45.247Z,101005.30
2019-04-11T02:16:12.639Z,101007.53
2019-04-11T02:18:39.869Z,101009.22
2019-04-11T02:21:06.628Z,101005.79
2019-04-11T02:23:35.420Z,101006.60
2019-04-11T02:26:04.830Z,101003.14
2019-04-11T02:28:33.288Z,101005.30
2019-04-11T02:31:02.545Z,101006.20
2019-04-11T02:33:30.530Z,101011.39
2019-04-11T02:35:58.117Z,101014.48
2019-04-11T02:38:24.888Z,101021.83
2019-04-11T02:40:52.566Z,101020.52
2019-04-11T02:43:20.423Z,101022.70
2019-04-11T02:45:58.260Z,101014.91
2019-04-11T02:48:18.208Z,101017.05
2019-04-11T02:50:45.879Z,101013.11
2019-04-11T02:53:14.807Z,101016.17
2019-04-11T02:55:43.846Z,101019.66
2019-04-11T02:58:12.482Z,101010.53
2019-04-11T03:00:40.242Z,101019.65
2019-04-11T03:03:08.476Z,101019.63
2019-04-11T03:05:37.558Z,101025.71
2019-04-11T03:08:10.883Z,101025.31
2019-04-11T03:10:37.573Z,101023.56
2019-04-11T03:13:04.959Z,101021.81
2019-04-11T03:15:53.619Z,101027.02
2019-04-11T03:18:06.056Z,101026.16
2019-04-11T03:20:38.428Z,101033.09
2019-04-11T03:23:04.502Z,101029.22
2019-04-11T03:25:28.862Z,101037.02
2019-04-11T03:27:59.013Z,101037.45
2019-04-11T03:30:42.211Z,101037.46
2019-04-11T03:38:12.392Z,101043.95
2019-04-11T03:40:43.827Z,101048.27
2019-04-11T03:43:06.108Z,101055.63
2019-04-11T03:45:43.813Z,101057.80
2019-04-11T03:48:06.240Z,101062.12
2019-04-11T03:50:23.339Z,101055.66
2019-04-11T03:52:49.350Z,101056.95
2019-04-11T03:55:19.157Z,101055.23
2019-04-11T03:57:47.060Z,101059.97
2019-04-11T04:00:15.438Z,101049.14
2019-04-11T04:02:44.407Z,101053.48
2019-04-11T04:05:13.190Z,101053.02
2019-04-11T04:07:41.245Z,101059.98
2019-04-11T04:10:11.532Z,101058.68
2019-04-11T04:12:40.245Z,101056.07
2019-04-11T04:15:13.037Z,101059.56
2019-04-11T04:17:41.399Z,101063.87
2019-04-11T04:20:12.935Z,101060.83
2019-04-11T04:22:45.616Z,101056.51
2019-04-11T04:25:12.421Z,101072.09
2019-04-11T04:27:41.017Z,101058.20
2019-04-11T04:30:10.640Z,101061.25
2019-04-11T04:32:38.646Z,101062.12
2019-04-11T04:35:10.705Z,101061.28
2019-04-11T04:37:36.481Z,101066.93
2019-04-11T04:40:24.097Z,101069.50
2019-04-11T04:42:40.363Z,101079.91
2019-04-11T04:45:07.388Z,101077.28
2019-04-11T04:47:42.687Z,101079.47
2019-04-11T04:50:06.395Z,101070.38
2019-04-11T04:52:34.462Z,101078.60
2019-04-11T04:55:06.015Z,101087.28
2019-04-11T04:57:33.886Z,101087.72
2019-04-11T05:00:05.048Z,101084.25
2019-04-11T05:02:32.689Z,101089.45
2019-04-11T05:05:01.350Z,101085.96
2019-04-11T05:07:34.150Z,101096.38
2019-04-11T05:09:58.701Z,101096.38
2019-04-11T05:12:26.138Z,101098.08
2019-04-11T05:14:54.155Z,101103.25
2019-04-11T05:17:23.150Z,101090.69
2019-04-11T05:19:50.897Z,101098.02
2019-04-11T05:22:18.947Z,101095.02
2019-04-11T05:24:45.956Z,101098.09
2019-04-11T05:27:12.644Z,101088.83
2019-04-11T05:29:39.713Z,101090.98
2019-04-11T05:32:07.257Z,101095.75
2019-04-11T05:34:35.200Z,101100.98
2019-04-11T05:37:02.508Z,101095.27
2019-04-11T05:39:29.227Z,101101.25
2019-04-11T05:41:56.726Z,101103.81
2019-04-11T05:44:23.587Z,101104.15
2019-04-11T05:46:57.193Z,101098.59
2019-04-11T05:49:22.813Z,101100.68
2019-04-11T05:51:54.004Z,101104.78
2019-04-11T05:54:20.376Z,101105.61
2019-04-11T05:56:53.885Z,101098.43
2019-04-11T05:59:20.390Z,101106.27
2019-04-11T06:01:50.784Z,101107.78
2019-04-11T06:04:23.323Z,101112.41
2019-04-11T06:06:50.641Z,101112.11
2019-04-11T06:09:19.319Z,101119.45
2019-04-11T06:11:52.382Z,101116.53
2019-04-11T06:14:19.433Z,101109.40
2019-04-11T06:16:53.725Z,101115.53
2019-04-11T06:19:18.662Z,101114.17
2019-04-11T06:21:48.394Z,101112.25
2019-04-11T06:24:18.198Z,101113.51
2019-04-11T06:26:47.098Z,101107.61
2019-04-11T06:29:22.926Z,101109.92
2019-04-11T06:31:47.427Z,101104.20
2019-04-11T06:34:17.564Z,101096.80
2019-04-11T06:36:48.241Z,101110.19
2019-04-11T06:39:18.925Z,101104.55
2019-04-11T06:41:48.640Z,101109.20
2019-04-11T06:44:17.432Z,101106.57
2019-04-11T06:46:53.875Z,101102.81
2019-04-11T06:49:16.418Z,101102.19
2019-04-11T06:51:46.270Z,101106.41
2019-04-11T06:54:15.099Z,101098.66
2019-04-11T06:56:43.813Z,101104.34
2019-04-11T06:59:12.309Z,101095.06
2019-04-11T07:01:40.550Z,101101.51
2019-04-11T07:04:09.364Z,101103.78
2019-04-11T07:06:38.115Z,101104.06
2019-04-11T07:09:07.804Z,101107.20
2019-04-11T07:11:36.438Z,101107.77
2019-04-11T07:14:06.103Z,101108.73
2019-04-11T07:16:34.541Z,101104.90
2019-04-11T07:19:03.084Z,101111.53
2019-04-11T07:21:31.696Z,101110.29
2019-04-11T07:24:00.275Z,101108.09
2019-04-11T07:26:29.447Z,101115.28
2019-04-11T07:28:59.288Z,101101.80
2019-04-11T07:31:27.979Z,101102.30
2019-04-11T07:33:56.624Z,101104.24
2019-04-11T07:36:25.293Z,101099.08
2019-04-11T07:38:54.881Z,101101.83
2019-04-11T07:41:23.928Z,101115.03
2019-04-11T07:43:50.751Z,101109.74
2019-04-11T07:46:19.215Z,101116.50
2019-04-11T07:48:46.887Z,101117.97
2019-04-11T07:51:15.698Z,101111.69
2019-04-11T07:53:44.362Z,101118.60
2019-04-11T07:56:13.213Z,101126.09
2019-04-11T07:58:42.995Z,101124.82
2019-04-11T08:01:12.624Z,101129.80
2019-04-11T08:03:41.493Z,101127.43
2019-04-11T08:06:11.119Z,101122.08
2019-04-11T08:08:38.990Z,101125.47
2019-04-11T08:11:07.757Z,101122.55
2019-04-11T08:13:36.896Z,101126.89
2019-04-11T08:16:04.926Z,101125.15
2019-04-11T08:18:34.912Z,101123.23
2019-04-11T08:21:03.882Z,101128.03
2019-04-11T08:23:31.711Z,101129.33
2019-04-11T08:26:00.284Z,101126.47
2019-04-11T08:28:27.074Z,101129.66
2019-04-11T08:30:57.250Z,101125.97
2019-04-11T08:33:26.742Z,101132.89
2019-04-11T08:35:57.138Z,101131.91
2019-04-11T08:38:26.684Z,101129.71
2019-04-11T08:40:55.669Z,101126.59
2019-04-11T08:43:24.637Z,101130.34
2019-04-11T08:45:51.610Z,101124.52
2019-04-11T08:48:19.172Z,101132.17
2019-04-11T08:50:48.666Z,101122.73
2019-04-11T08:53:18.476Z,101131.31
2019-04-11T08:55:53.704Z,101123.94
2019-04-11T08:58:18.340Z,101128.04
2019-04-11T09:00:48.878Z,101134.30
2019-04-11T09:03:19.707Z,101141.50
2019-04-11T09:05:49.294Z,101133.38
2019-04-11T09:08:18.378Z,101122.38
2019-04-11T09:10:49.150Z,101130.36
2019-04-11T09:13:18.079Z,101126.53
2019-04-11T09:15:46.871Z,101120.96
2019-04-11T09:18:14.929Z,101124.09
2019-04-11T09:20:45.485Z,101118.85
2019-04-11T09:23:13.430Z,101115.14
2019-04-11T09:25:43.432Z,101114.45
2019-04-11T09:28:13.368Z,101113.07
2019-04-11T09:30:43.130Z,101123.48
2019-04-11T09:33:12.905Z,101113.87
2019-04-11T09:35:41.872Z,101118.63
2019-04-11T09:38:10.540Z,101113.48
2019-04-11T09:40:39.610Z,101114.19
2019-04-11T09:43:09.380Z,101107.23
2019-04-11T09:45:38.656Z,101108.77
2019-04-11T09:48:14.075Z,101115.91
2019-04-11T09:50:38.042Z,101110.95
2019-04-11T09:53:05.738Z,101108.36
2019-04-11T09:55:34.833Z,101114.64
2019-04-11T09:58:02.866Z,101104.47
2019-04-11T10:00:32.035Z,101107.70
2019-04-11T10:03:00.859Z,101107.67
2019-04-11T10:05:30.039Z,101106.84
2019-04-11T10:07:59.992Z,101098.03
2019-04-11T10:10:29.162Z,101105.74
2019-04-11T10:12:57.879Z,101124.14
2019-04-11T10:15:27.214Z,101114.33
2019-04-11T10:17:56.939Z,101119.89
2019-04-11T10:20:24.538Z,101112.43
2019-04-11T10:22:54.425Z,101119.97
2019-04-11T10:25:23.400Z,101117.50
2019-04-11T10:27:53.106Z,101124.10
2019-04-11T10:30:23.775Z,101123.67
2019-04-11T10:32:52.651Z,101126.57
2019-04-11T10:35:22.033Z,101116.15
2019-04-11T10:37:50.472Z,101108.54
2019-04-11T10:40:21.273Z,101121.20
2019-04-11T10:42:49.499Z,101123.98
2019-04-11T10:45:18.490Z,101115.36
2019-04-11T10:47:45.509Z,101116.20
2019-04-11T10:50:15.493Z,101117.72
2019-04-11T10:52:46.654Z,101102.23
2019-04-11T10:55:15.600Z,101107.83
2019-04-11T10:57:44.698Z,101107.14
2019-04-11T11:00:18.938Z,101113.20
2019-04-11T11:02:47.382Z,101103.69
2019-04-11T11:05:19.122Z,101114.11
2019-04-11T11:07:47.506Z,101110.59
2019-04-11T11:10:16.010Z,101104.02
2019-04-11T11:12:45.482Z,101103.50
2019-04-11T11:15:15.544Z,101106.35
2019-04-11T11:18:05.589Z,101102.09
2019-04-11T11:20:24.805Z,101103.45
2019-04-11T11:22:48.607Z,101113.12
2019-04-11T11:25:19.268Z,101108.08
2019-04-11T11:27:48.028Z,101109.48
2019-04-11T11:30:16.977Z,101113.11
2019-04-11T11:32:45.280Z,101103.31
2019-04-11T11:35:15.126Z,101105.31
2019-04-11T11:37:45.266Z,101099.94
2019-04-11T11:40:16.565Z,101093.06
2019-04-11T11:42:44.840Z,101103.55
2019-04-11T11:45:13.678Z,101098.87
2019-04-11T11:47:43.195Z,101104.45
2019-04-11T11:50:18.218Z,101112.22
2019-04-11T11:52:43.988Z,101109.55
2019-04-11T11:55:12.830Z,101111.75
2019-04-11T11:57:41.302Z,101105.55
2019-04-11T12:00:12.669Z,101107.63
2019-04-11T12:02:42.366Z,101112.67
2019-04-11T12:05:15.833Z,101105.09
2019-04-11T12:07:42.985Z,101102.36
2019-04-11T12:10:13.238Z,101095.91
2019-04-11T12:12:42.249Z,101107.47
2019-04-11T12:15:14.181Z,101114.61
2019-04-11T12:17:42.764Z,101105.74
2019-04-11T12:20:15.702Z,101110.07
2019-04-11T12:22:42.296Z,101109.02
2019-04-11T12:25:12.185Z,101115.27
2019-04-11T12:27:41.535Z,101105.78
2019-04-11T12:30:10.933Z,101113.86
2019-04-11T12:32:40.880Z,101103.00
2019-04-11T12:35:11.621Z,101114.05
2019-04-11T12:37:41.336Z,101110.06
2019-04-11T12:40:10.419Z,101105.70
2019-04-11T12:42:39.942Z,101109.89
2019-04-11T12:45:09.539Z,101108.06
2019-04-11T12:47:38.572Z,101107.87
2019-04-11T12:50:09.316Z,101104.66
2019-04-11T12:52:37.779Z,101099.98
2019-04-11T12:55:08.261Z,101105.93
2019-04-11T12:57:37.334Z,101097.81
2019-04-11T13:00:09.003Z,101108.39
2019-04-11T13:02:37.880Z,101107.98
2019-04-11T13:05:07.555Z,101106.25
2019-04-11T13:07:36.494Z,101104.05
2019-04-11T13:10:10.482Z,101103.94
2019-04-11T13:12:39.098Z,101110.30
2019-04-11T13:15:08.108Z,101112.64
2019-04-11T13:17:37.125Z,101111.70
2019-04-11T13:20:07.310Z,101111.41
2019-04-11T13:22:34.160Z,101108.52
2019-04-11T13:25:02.822Z,101100.22
2019-04-11T13:27:31.552Z,101101.51
2019-04-11T13:30:00.049Z,101105.69
2019-04-11T13:32:28.511Z,101105.71
2019-04-11T13:34:57.241Z,101104.43
2019-04-11T13:37:25.866Z,101112.77
2019-04-11T13:39:54.351Z,101121.34
2019-04-11T13:42:22.875Z,101126.44
2019-04-11T13:44:49.473Z,101120.02
2019-04-11T13:47:16.136Z,101120.23
2019-04-11T13:49:45.359Z,101121.08
2019-04-11T13:52:13.669Z,101113.20
2019-04-11T13:54:42.404Z,101113.92
2019-04-11T13:57:10.995Z,101113.23
2019-04-11T13:59:39.596Z,101110.09
2019-04-11T14:02:08.416Z,101106.02
2019-04-11T14:04:39.004Z,101109.34
2019-04-11T14:07:06.945Z,101107.28
2019-04-11T14:09:35.650Z,101102.00
2019-04-11T14:12:07.155Z,101105.30
2019-04-11T14:14:35.815Z,101101.22
2019-04-11T14:17:04.805Z,101109.30
2019-04-11T14:19:33.354Z,101103.69
2019-04-11T14:22:00.366Z,101101.29
2019-04-11T14:24:28.979Z,101111.39
2019-04-11T14:26:57.660Z,101099.62
2019-04-11T14:29:26.441Z,101112.64
2019-04-11T14:31:56.231Z,101111.68
2019-04-11T14:34:24.821Z,101102.67
2019-04-11T14:36:54.517Z,101103.20
2019-04-11T14:39:23.288Z,101106.20
2019-04-11T14:41:51.817Z,101109.89
2019-04-11T14:44:19.261Z,101108.88
2019-04-11T14:46:47.869Z,101109.05
2019-04-11T14:49:14.604Z,101100.25
2019-04-11T14:51:44.002Z,101097.41
2019-04-11T14:54:17.277Z,101100.94
2019-04-11T14:56:42.684Z,101100.94
2019-04-11T14:59:13.190Z,101101.23
2019-04-11T15:01:43.943Z,101092.56
2019-04-11T15:04:13.600Z,101092.39
2019-04-11T15:06:44.806Z,101091.34
2019-04-11T15:09:14.748Z,101083.09
2019-04-11T15:11:44.256Z,101088.63
2019-04-11T15:14:12.830Z,101104.78
2019-04-11T15:16:41.405Z,101092.73
2019-04-11T15:19:08.155Z,101087.99
2019-04-11T15:21:37.248Z,101088.89
2019-04-11T15:24:07.228Z,101096.50
2019-04-11T15:26:36.639Z,101084.39
2019-04-11T15:29:05.522Z,101072.75
2019-04-11T15:31:39.513Z,101079.59
2019-04-11T15:34:05.052Z,101070.55
2019-04-11T15:36:31.607Z,101081.45
2019-04-11T15:39:00.137Z,101080.55
2019-04-11T15:41:28.621Z,101080.09
2019-04-11T15:43:57.188Z,101087.53
2019-04-11T15:46:28.702Z,101080.28
2019-04-11T15:48:57.415Z,101095.47
2019-04-11T15:51:25.933Z,101097.48
2019-04-11T15:53:54.406Z,101099.79
2019-04-11T15:56:22.901Z,101104.41
2019-04-11T15:58:51.398Z,101090.98
2019-04-11T16:01:19.978Z,101112.22
2019-04-11T16:03:48.503Z,101113.47
2019-04-11T16:06:16.980Z,101103.67
2019-04-11T16:08:43.904Z,101107.73
2019-04-11T16:11:13.006Z,101111.52
2019-04-11T16:13:41.699Z,101110.98
2019-04-11T16:16:11.918Z,101118.30
2019-04-11T16:18:39.566Z,101118.46
2019-04-11T16:21:18.175Z,101115.94
2019-04-11T16:23:38.480Z,101117.23
2019-04-11T16:26:07.119Z,101118.97
2019-04-11T16:28:37.937Z,101126.95
2019-04-11T16:31:04.598Z,101124.72
2019-04-11T16:33:33.206Z,101126.39
2019-04-11T16:36:01.969Z,101127.55
2019-04-11T16:38:30.657Z,101131.67
2019-04-11T16:40:59.179Z,101134.75
2019-04-11T16:43:26.057Z,101126.73
2019-04-11T16:45:55.328Z,101136.33
2019-04-11T16:48:25.533Z,101136.56
2019-04-11T16:50:50.965Z,101138.06
2019-04-11T16:53:17.784Z,101133.84
2019-04-11T16:55:44.556Z,101138.69
2019-04-11T16:58:15.125Z,101146.02
2019-04-11T17:00:40.141Z,101147.59
2019-04-11T17:03:06.996Z,101144.19
2019-04-11T17:05:34.096Z,101149.49
2019-04-11T17:08:03.279Z,101157.59
2019-04-11T17:10:31.879Z,101158.94
2019-04-11T17:12:58.571Z,101158.99
2019-04-11T17:15:25.197Z,101163.92
2019-04-11T17:17:53.592Z,101162.26
2019-04-11T17:20:20.249Z,101167.98
2019-04-11T17:22:48.845Z,101169.11
2019-04-11T17:25:17.610Z,101172.48
2019-04-11T17:27:45.949Z,101173.94
2019-04-11T17:30:12.737Z,101178.20
2019-04-11T17:33:17.308Z,101181.59
2019-04-11T17:35:44.069Z,101179.92
2019-04-11T17:38:10.770Z,101184.21
2019-04-11T17:40:39.586Z,101184.61
2019-04-11T17:43:06.421Z,101189.87
2019-04-11T17:45:33.588Z,101193.97
2019-04-11T17:48:00.360Z,101200.07
2019-04-11T17:50:27.146Z,101198.34
2019-04-11T17:52:54.765Z,101204.14
2019-04-11T17:55:23.996Z,101201.24
2019-04-11T17:57:50.943Z,101210.25
2019-04-11T18:00:22.131Z,101212.42
2019-04-11T18:02:49.083Z,101215.69
2019-04-11T18:05:17.127Z,101226.13
2019-04-11T18:07:46.856Z,101225.31
2019-04-11T18:10:13.261Z,101225.44
2019-04-11T18:12:43.401Z,101229.38
2019-04-11T18:15:10.396Z,101236.84
2019-04-11T18:17:37.102Z,101240.78
2019-04-11T18:20:07.725Z,101241.39
2019-04-11T18:22:34.894Z,101242.80
2019-04-11T18:25:04.551Z,101247.27
2019-04-11T18:27:31.239Z,101248.15
2019-04-11T18:29:58.057Z,101253.42
2019-04-11T18:32:25.183Z,101252.67
2019-04-11T18:34:52.781Z,101257.55
2019-04-11T18:37:20.873Z,101257.63
2019-04-11T18:39:47.486Z,101259.45
2019-04-11T18:42:16.933Z,101259.91
2019-04-11T18:44:43.731Z,101263.04
2019-04-11T18:47:10.660Z,101259.16
2019-04-11T18:49:37.380Z,101261.78
2019-04-11T18:52:04.218Z,101259.56
2019-04-11T18:54:30.916Z,101261.34
2019-04-11T18:56:57.617Z,101260.90
2019-04-11T18:59:24.485Z,101258.82
2019-04-11T19:01:51.230Z,101266.15
2019-04-11T19:04:18.064Z,101263.94
2019-04-11T19:06:44.923Z,101267.89
2019-04-11T19:09:16.441Z,101275.34
2019-04-11T19:11:43.852Z,101268.41
2019-04-11T19:14:15.781Z,101270.99
2019-04-11T19:16:46.106Z,101267.98
2019-04-11T19:19:18.023Z,101279.72
2019-04-11T19:21:42.332Z,101276.28
2019-04-11T19:24:12.930Z,101271.05
2019-04-11T19:26:39.672Z,101278.46
2019-04-11T19:29:06.397Z,101278.45
2019-04-11T19:31:33.181Z,101272.83
2019-04-11T19:34:04.462Z,101271.53
2019-04-11T19:36:28.750Z,101270.23
2019-04-11T19:38:55.418Z,101278.92
2019-04-11T19:41:22.345Z,101273.29
2019-04-11T19:43:49.932Z,101271.58
2019-04-11T19:46:18.003Z,101270.28
2019-04-11T19:48:45.389Z,101268.09
2019-04-11T19:51:12.017Z,101271.14
2019-04-11T19:53:38.700Z,101271.59
2019-04-11T19:56:07.172Z,101268.09
2019-04-11T19:58:33.977Z,101280.24
2019-04-11T20:01:00.668Z,101279.38
2019-04-11T20:03:27.275Z,101277.61
2019-04-11T20:05:53.855Z,101280.22
2019-04-11T20:08:20.542Z,101281.07
2019-04-11T20:10:47.136Z,101282.41
2019-04-11T20:13:16.068Z,101278.88
2019-04-11T20:15:43.176Z,101286.67
2019-04-11T20:18:10.226Z,101284.48
2019-04-11T20:20:37.600Z,101289.67
2019-04-11T20:23:04.932Z,101290.46
2019-04-11T20:25:31.638Z,101292.22
2019-04-11T20:27:58.317Z,101290.82
2019-04-11T20:30:26.578Z,101290.05
2019-04-11T20:32:53.261Z,101289.08
2019-04-11T20:35:28.759Z,101294.72
2019-04-11T20:37:48.956Z,101292.97
2019-04-11T20:40:18.786Z,101304.20
2019-04-11T20:42:44.084Z,101307.64
2019-04-11T20:45:16.813Z,101301.58
2019-04-11T20:47:52.998Z,101317.56
2019-04-11T20:50:27.068Z,101315.80
2019-04-11T20:52:54.307Z,101315.75
2019-04-11T20:55:21.221Z,101315.32
2019-04-11T20:57:47.930Z,101315.31
2019-04-11T21:00:16.005Z,101321.80
2019-04-11T21:02:42.568Z,101317.45
2019-04-11T21:05:09.454Z,101319.19
2019-04-11T21:07:38.908Z,101317.89
2019-04-11T21:10:05.890Z,101318.24
2019-04-11T21:12:37.052Z,101319.16
2019-04-11T21:15:06.372Z,101321.63
2019-04-11T21:17:33.024Z,101319.16
2019-04-11T21:19:59.603Z,101322.61
2019-04-11T21:22:26.221Z,101321.63
2019-04-11T21:24:52.804Z,101325.17
2019-04-11T21:27:20.628Z,101331.25
2019-04-11T21:29:47.261Z,101335.50
2019-04-11T21:32:14.135Z,101335.98
2019-04-11T21:34:40.884Z,101332.95
2019-04-11T21:37:07.642Z,101334.63
2019-04-11T21:39:34.302Z,101336.05
2019-04-11T21:42:00.953Z,101341.27
2019-04-11T21:44:27.853Z,101344.69
2019-04-11T21:46:54.559Z,101344.25
2019-04-11T21:49:21.310Z,101352.94
2019-04-11T21:51:49.321Z,101354.65
2019-04-11T21:54:16.104Z,101352.48
2019-04-11T21:56:42.703Z,101351.20
2019-04-11T21:59:09.340Z,101353.40
2019-04-11T22:01:40.736Z,101360.72
2019-04-11T22:04:08.142Z,101355.94
2019-04-11T22:06:34.976Z,101351.53
2019-04-11T22:09:04.840Z,101348.90
2019-04-11T22:11:32.202Z,101353.98
2019-04-11T22:13:58.871Z,101356.20
2019-04-11T22:16:25.675Z,101353.05
2019-04-11T22:18:52.309Z,101362.52
2019-04-11T22:21:18.889Z,101356.52
2019-04-11T22:23:48.946Z,101354.34
2019-04-11T22:26:14.886Z,101362.05
2019-04-11T22:28:41.645Z,101361.11
2019-04-11T22:31:08.499Z,101364.14
2019-04-11T22:33:37.094Z,101357.97
2019-04-11T22:36:03.754Z,101364.55
2019-04-11T22:38:31.073Z,101365.91
2019-04-11T22:41:01.764Z,101363.80
2019-04-11T22:43:27.186Z,101364.05
2019-04-11T22:45:53.944Z,101362.01
2019-04-11T22:48:20.606Z,101360.95
2019-04-11T22:50:47.236Z,101357.03
2019-04-11T22:53:16.876Z,101362.21
2019-04-11T22:55:43.483Z,101357.88
2019-04-11T22:58:13.968Z,101361.21
2019-04-11T23:00:38.812Z,101366.22
2019-04-11T23:03:07.354Z,101369.80
2019-04-11T23:05:35.198Z,101370.26
2019-04-11T23:08:02.897Z,101369.78
2019-04-11T23:10:30.024Z,101377.13
2019-04-11T23:12:56.613Z,101380.62
2019-04-11T23:15:23.329Z,101370.00
2019-04-11T23:17:50.138Z,101370.81
2019-04-11T23:20:16.805Z,101367.06
2019-04-11T23:22:43.502Z,101370.21
2019-04-11T23:25:10.229Z,101364.43
2019-04-11T23:27:38.725Z,101367.89
2019-04-11T23:30:07.001Z,101369.63
2019-04-11T23:32:33.856Z,101366.47
2019-04-11T23:35:00.458Z,101364.00
2019-04-11T23:37:27.009Z,101374.86
2019-04-11T23:39:53.638Z,101363.17
2019-04-11T23:42:20.294Z,101367.45
2019-04-11T23:44:47.903Z,101366.56
2019-04-11T23:47:15.726Z,101369.33
2019-04-11T23:49:42.365Z,101366.70
2019-04-11T23:52:08.982Z,101362.50
2019-04-11T23:54:35.822Z,101362.14
2019-04-11T23:57:03.786Z,101367.72
2019-04-11T23:59:32.137Z,101373.40
